createdAt,value
2023-03-09T00:01:46.785Z,98236.16
2023-03-09T00:04:15.612Z,98236.75
2023-03-09T00:06:42.522Z,98232.91
2023-03-09T00:09:08.999Z,98233.72
2023-03-09T00:11:35.457Z,98235.38
2023-03-09T00:14:02.268Z,98229.94
2023-03-09T00:16:30.310Z,98237.88
2023-03-09T00:19:01.165Z,98245.81
2023-03-09T00:21:36.079Z,98235.47
2023-03-09T00:24:14.327Z,98237.38
2023-03-09T00:26:43.617Z,98234.63
2023-03-09T00:29:13.575Z,98228.84
2023-03-09T00:31:40.661Z,98223.63
2023-03-09T00:34:07.828Z,98218.16
2023-03-09T00:36:34.360Z,98217.09
2023-03-09T00:39:01.559Z,98217.91
2023-03-09T00:41:31.733Z,98231.81
2023-03-09T00:43:59.905Z,98236.47
2023-03-09T00:46:27.314Z,98241.38
2023-03-09T00:48:53.853Z,98246.53
2023-03-09T00:51:20.772Z,98238.56
2023-03-09T00:53:47.204Z,98241.06
2023-03-09T00:56:18.132Z,98239.72
2023-03-09T00:58:44.648Z,98238.88
2023-03-09T01:01:14.704Z,98249.31
2023-03-09T01:03:41.763Z,98246.31
2023-03-09T01:06:08.990Z,98257.03
2023-03-09T01:08:36.039Z,98254.28
2023-03-09T01:11:06.876Z,98262.22
2023-03-09T01:13:33.317Z,98270.41
2023-03-09T01:15:59.784Z,98277.00
2023-03-09T01:18:26.393Z,98269.34
2023-03-09T01:20:52.829Z,98265.78
2023-03-09T01:23:19.301Z,98264.13
2023-03-09T01:25:45.785Z,98263.03
2023-03-09T01:28:12.236Z,98273.47
2023-03-09T01:30:39.512Z,98269.66
2023-03-09T01:33:06.213Z,98269.66
2023-03-09T01:35:33.019Z,98266.94
2023-03-09T01:37:59.510Z,98284.41
2023-03-09T01:40:27.986Z,98296.19
2023-03-09T01:43:02.495Z,98282.78
2023-03-09T01:45:28.812Z,98295.34
2023-03-09T01:47:59.095Z,98290.72
2023-03-09T01:50:36.670Z,98295.09
2023-03-09T01:53:15.439Z,98300.31
2023-03-09T01:55:47.660Z,98312.91
2023-03-09T01:58:20.465Z,98306.38
2023-03-09T02:00:49.863Z,98314.56
2023-03-09T02:03:28.096Z,98323.84
2023-03-09T02:06:12.015Z,98326.00
2023-03-09T02:08:44.627Z,98342.44
2023-03-09T02:11:14.493Z,98352.25
2023-03-09T02:13:49.303Z,98363.19
2023-03-09T02:16:16.547Z,98374.13
2023-03-09T02:18:43.092Z,98387.00
2023-03-09T02:21:34.501Z,98379.38
2023-03-09T02:24:13.777Z,98385.66
2023-03-09T02:26:46.149Z,98397.16
2023-03-09T02:29:14.366Z,98396.38
2023-03-09T02:31:41.372Z,98388.97
2023-03-09T02:34:09.000Z,98400.72
2023-03-09T02:36:35.738Z,98422.06
2023-03-09T02:39:09.052Z,98432.66
2023-03-09T02:41:35.882Z,98429.09
2023-03-09T02:44:02.831Z,98428.50
2023-03-09T02:46:29.263Z,98434.25
2023-03-09T02:48:56.180Z,98438.53
2023-03-09T02:51:22.612Z,98439.63
2023-03-09T02:53:48.983Z,98439.38
2023-03-09T02:56:15.370Z,98446.25
2023-03-09T02:58:41.728Z,98447.31
2023-03-09T03:01:08.191Z,98448.97
2023-03-09T03:03:34.893Z,98457.50
2023-03-09T03:06:01.311Z,98468.22
2023-03-09T03:08:36.679Z,98476.16
2023-03-09T03:11:04.247Z,98480.31
2023-03-09T03:13:30.683Z,98503.81
2023-03-09T03:16:00.853Z,98500.84
2023-03-09T03:18:27.786Z,98511.28
2023-03-09T03:20:54.487Z,98508.31
2023-03-09T03:23:21.231Z,98513.28
2023-03-09T03:25:47.670Z,98507.31
2023-03-09T03:28:14.029Z,98512.28
2023-03-09T03:30:40.472Z,98513.63
2023-03-09T03:33:06.916Z,98523.72
2023-03-09T03:35:33.531Z,98523.16
2023-03-09T03:38:00.814Z,98522.56
2023-03-09T03:40:27.426Z,98528.03
2023-03-09T03:42:53.841Z,98540.63
2023-03-09T03:45:20.590Z,98550.50
2023-03-09T03:47:46.998Z,98547.78
2023-03-09T03:50:14.010Z,98551.56
2023-03-09T03:52:40.417Z,98575.13
2023-03-09T03:55:07.166Z,98576.19
2023-03-09T03:57:33.534Z,98575.59
2023-03-09T03:59:59.911Z,98580.84
2023-03-09T04:02:26.382Z,98577.25
2023-03-09T04:04:52.896Z,98577.88
2023-03-09T04:07:19.317Z,98583.34
2023-03-09T04:09:45.679Z,98579.50
2023-03-09T04:12:12.114Z,98582.84
2023-03-09T04:14:39.289Z,98587.22
2023-03-09T04:17:05.777Z,98592.22
2023-03-09T04:19:32.213Z,98600.16
2023-03-09T04:21:58.597Z,98608.13
2023-03-09T04:24:24.978Z,98608.13
2023-03-09T04:26:51.412Z,98609.78
2023-03-09T04:29:17.859Z,98611.41
2023-03-09T04:31:44.264Z,98613.09
2023-03-09T04:34:14.010Z,98617.22
2023-03-09T04:36:40.452Z,98630.09
2023-03-09T04:39:06.844Z,98628.44
2023-03-09T04:41:33.638Z,98632.84
2023-03-09T04:44:00.374Z,98639.94
2023-03-09T04:46:26.862Z,98641.63
2023-03-09T04:48:53.429Z,98649.81
2023-03-09T04:51:19.944Z,98651.72
2023-03-09T04:53:46.628Z,98644.91
2023-03-09T04:56:13.597Z,98644.13
2023-03-09T04:58:39.986Z,98647.66
2023-03-09T05:01:06.849Z,98644.91
2023-03-09T05:03:33.237Z,98648.75
2023-03-09T05:05:59.601Z,98648.50
2023-03-09T05:08:26.013Z,98652.91
2023-03-09T05:10:52.416Z,98669.31
2023-03-09T05:13:18.774Z,98671.22
2023-03-09T05:15:45.195Z,98673.13
2023-03-09T05:18:12.328Z,98669.31
2023-03-09T05:20:39.111Z,98677.28
2023-03-09T05:23:05.571Z,98678.09
2023-03-09T05:25:32.539Z,98674.28
2023-03-09T05:27:58.963Z,98665.25
2023-03-09T05:30:25.481Z,98680.59
2023-03-09T05:32:51.918Z,98676.78
2023-03-09T05:35:20.152Z,98675.72
2023-03-09T05:37:47.440Z,98680.09
2023-03-09T05:40:15.449Z,98668.66
2023-03-09T05:42:42.553Z,98682.09
2023-03-09T05:45:10.136Z,98679.13
2023-03-09T05:47:36.860Z,98680.75
2023-03-09T05:50:03.479Z,98693.38
2023-03-09T05:52:29.931Z,98694.22
2023-03-09T05:54:56.868Z,98697.19
2023-03-09T05:57:23.410Z,98700.19
2023-03-09T05:59:49.853Z,98698.84
2023-03-09T06:02:16.330Z,98690.41
2023-03-09T06:04:42.721Z,98702.75
2023-03-09T06:07:09.277Z,98698.69
2023-03-09T06:09:35.706Z,98702.25
2023-03-09T06:12:02.149Z,98706.66
2023-03-09T06:14:28.552Z,98708.34
2023-03-09T06:16:54.982Z,98708.34
2023-03-09T06:19:21.458Z,98715.44
2023-03-09T06:21:47.927Z,98714.16
2023-03-09T06:24:14.319Z,98713.88
2023-03-09T06:26:41.038Z,98718.84
2023-03-09T06:29:07.492Z,98723.03
2023-03-09T06:31:34.008Z,98734.31
2023-03-09T06:34:00.577Z,98726.66
2023-03-09T06:36:26.992Z,98730.00
2023-03-09T06:38:53.410Z,98731.91
2023-03-09T06:41:28.356Z,98736.88
2023-03-09T06:43:54.736Z,98746.50
2023-03-09T06:46:21.208Z,98750.41
2023-03-09T06:48:47.567Z,98745.53
2023-03-09T06:51:13.967Z,98754.31
2023-03-09T06:53:40.413Z,98754.41
2023-03-09T06:56:07.364Z,98753.06
2023-03-09T06:58:34.625Z,98761.13
2023-03-09T07:01:07.781Z,98767.53
2023-03-09T07:03:34.680Z,98759.63
2023-03-09T07:06:01.298Z,98778.88
2023-03-09T07:08:27.648Z,98774.56
2023-03-09T07:10:55.127Z,98781.22
2023-03-09T07:13:22.842Z,98791.19
2023-03-09T07:15:49.381Z,98797.38
2023-03-09T07:18:15.915Z,98800.75
2023-03-09T07:20:42.890Z,98802.25
2023-03-09T07:23:10.630Z,98809.72
2023-03-09T07:25:38.426Z,98814.44
2023-03-09T07:28:08.851Z,98818.09
2023-03-09T07:30:38.207Z,98825.59
2023-03-09T07:33:05.074Z,98827.81
2023-03-09T07:35:31.680Z,98831.44
2023-03-09T07:37:58.261Z,98833.69
2023-03-09T07:40:24.750Z,98832.09
2023-03-09T07:42:53.753Z,98843.16
2023-03-09T07:45:21.972Z,98851.94
2023-03-09T07:47:48.495Z,98847.63
2023-03-09T07:50:15.197Z,98852.34
2023-03-09T07:52:42.401Z,98854.91
2023-03-09T07:55:12.203Z,98855.81
2023-03-09T07:57:39.444Z,98850.38
2023-03-09T08:00:12.997Z,98866.69
2023-03-09T08:02:43.297Z,98867.84
2023-03-09T08:05:11.580Z,98872.81
2023-03-09T08:07:38.094Z,98871.47
2023-03-09T08:10:05.615Z,98884.44
2023-03-09T08:12:32.062Z,98885.84
2023-03-09T08:14:58.505Z,98890.56
2023-03-09T08:17:25.333Z,98891.47
2023-03-09T08:19:52.462Z,98895.13
2023-03-09T08:22:18.888Z,98900.69
2023-03-09T08:24:45.307Z,98900.47
2023-03-09T08:27:11.715Z,98905.84
2023-03-09T08:29:38.234Z,98903.75
2023-03-09T08:32:08.944Z,98908.28
2023-03-09T08:34:35.558Z,98911.16
2023-03-09T08:37:02.390Z,98917.88
2023-03-09T08:39:28.808Z,98924.59
2023-03-09T08:41:55.302Z,98924.59
2023-03-09T08:44:21.760Z,98929.13
2023-03-09T08:46:48.417Z,98928.09
2023-03-09T08:49:14.819Z,98935.28
2023-03-09T08:51:41.731Z,98928.22
2023-03-09T08:54:08.243Z,98934.34
2023-03-09T08:56:34.690Z,98940.47
2023-03-09T08:59:01.115Z,98938.03
2023-03-09T09:01:27.653Z,98942.81
2023-03-09T09:03:54.595Z,98941.72
2023-03-09T09:06:21.246Z,98939.59
2023-03-09T09:08:47.649Z,98958.91
2023-03-09T09:11:16.643Z,98949.31
2023-03-09T09:13:44.230Z,98948.81
2023-03-09T09:16:12.281Z,98949.97
2023-03-09T09:18:41.499Z,98962.91
2023-03-09T09:21:14.101Z,98967.91
2023-03-09T09:23:42.488Z,98983.88
2023-03-09T09:26:09.901Z,98982.06
2023-03-09T09:28:36.438Z,98989.50
2023-03-09T09:31:04.900Z,98989.44
2023-03-09T09:33:34.017Z,99007.88
2023-03-09T09:36:07.109Z,99008.28
2023-03-09T09:38:36.820Z,99009.28
2023-03-09T09:41:07.751Z,99025.19
2023-03-09T09:43:35.203Z,99020.69
2023-03-09T09:46:03.802Z,99043.16
2023-03-09T09:48:31.610Z,99031.81
2023-03-09T09:51:22.782Z,99050.16
2023-03-09T09:53:56.068Z,99061.63
2023-03-09T09:56:27.816Z,99060.97
2023-03-09T09:59:02.899Z,99068.91
2023-03-09T10:01:43.526Z,99064.50
2023-03-09T10:04:18.428Z,99069.19
2023-03-09T10:06:48.037Z,99067.00
2023-03-09T10:09:20.276Z,99071.97
2023-03-09T10:12:03.714Z,99073.66
2023-03-09T10:14:38.989Z,99066.78
2023-03-09T10:17:27.061Z,99081.13
2023-03-09T10:19:55.415Z,99084.72
2023-03-09T10:22:25.488Z,99088.63
2023-03-09T10:24:53.943Z,99096.59
2023-03-09T10:27:23.201Z,99094.16
2023-03-09T10:30:10.194Z,99089.81
2023-03-09T10:32:52.813Z,99095.91
2023-03-09T10:35:33.936Z,99109.72
2023-03-09T10:38:00.440Z,99104.84
2023-03-09T10:40:30.750Z,99112.09
2023-03-09T10:43:01.082Z,99106.63
2023-03-09T10:45:33.473Z,99114.41
2023-03-09T10:48:07.003Z,99107.38
2023-03-09T10:50:41.254Z,99114.03
2023-03-09T10:53:30.187Z,99115.66
2023-03-09T10:56:19.725Z,99121.69
2023-03-09T10:58:46.581Z,99123.38
2023-03-09T11:01:12.944Z,99134.38
2023-03-09T11:03:42.559Z,99128.63
2023-03-09T11:06:28.708Z,99138.22
2023-03-09T11:09:14.981Z,99122.00
2023-03-09T11:11:47.919Z,99132.31
2023-03-09T11:14:29.989Z,99121.38
2023-03-09T11:16:58.909Z,99132.50
2023-03-09T11:19:26.492Z,99125.13
2023-03-09T11:22:00.073Z,99115.56
2023-03-09T11:24:52.994Z,99121.63
2023-03-09T11:27:29.802Z,99137.91
2023-03-09T11:30:05.796Z,99135.41
2023-03-09T11:32:32.266Z,99131.03
2023-03-09T11:35:00.763Z,99132.16
2023-03-09T11:37:42.450Z,99125.50
2023-03-09T11:40:22.632Z,99142.53
2023-03-09T11:42:56.345Z,99146.63
2023-03-09T11:45:25.110Z,99143.59
2023-03-09T11:47:56.759Z,99151.41
2023-03-09T11:50:28.515Z,99144.88
2023-03-09T11:53:25.790Z,99146.09
2023-03-09T11:56:01.204Z,99143.94
2023-03-09T11:58:34.837Z,99131.06
2023-03-09T12:01:28.558Z,99124.28
2023-03-09T12:04:16.750Z,99122.13
2023-03-09T12:06:55.108Z,99112.72
2023-03-09T12:09:42.559Z,99117.69
2023-03-09T12:12:41.482Z,99108.97
2023-03-09T12:15:17.413Z,99104.66
2023-03-09T12:17:51.250Z,99104.19
2023-03-09T12:20:38.493Z,99109.16
2023-03-09T12:23:06.463Z,99106.66
2023-03-09T12:25:32.953Z,99109.66
2023-03-09T12:28:03.436Z,99116.31
2023-03-09T12:30:33.250Z,99114.84
2023-03-09T12:33:01.948Z,99111.28
2023-03-09T12:35:28.598Z,99115.66
2023-03-09T12:38:00.829Z,99111.56
2023-03-09T12:40:27.298Z,99108.56
2023-03-09T12:43:19.992Z,99118.47
2023-03-09T12:45:51.044Z,99111.56
2023-03-09T12:48:23.436Z,99119.09
2023-03-09T12:51:21.013Z,99110.84
2023-03-09T12:54:02.263Z,99093.25
2023-03-09T12:56:30.034Z,99092.78
2023-03-09T12:58:57.762Z,99090.59
2023-03-09T13:01:24.130Z,99079.50
2023-03-09T13:04:10.322Z,99075.91
2023-03-09T13:06:40.952Z,99063.44
2023-03-09T13:09:16.259Z,99063.44
2023-03-09T13:11:44.798Z,99062.88
2023-03-09T13:14:16.095Z,99066.47
2023-03-09T13:16:45.492Z,99071.19
2023-03-09T13:19:15.174Z,99080.84
2023-03-09T13:21:43.910Z,99074.19
2023-03-09T13:24:19.875Z,99075.00
2023-03-09T13:26:49.377Z,99071.72
2023-03-09T13:29:18.655Z,99078.91
2023-03-09T13:31:49.312Z,99101.88
2023-03-09T13:34:23.829Z,99082.25
2023-03-09T13:36:54.224Z,99079.22
2023-03-09T13:39:25.777Z,99082.78
2023-03-09T13:41:53.127Z,99078.34
2023-03-09T13:44:22.186Z,99086.66
2023-03-09T13:46:56.431Z,99079.44
2023-03-09T13:49:26.521Z,99077.78
2023-03-09T13:52:02.577Z,99086.09
2023-03-09T13:54:49.629Z,99075.34
2023-03-09T13:57:24.919Z,99082.25
2023-03-09T13:59:59.490Z,99080.03
2023-03-09T14:02:31.847Z,99075.06
2023-03-09T14:05:01.852Z,99087.25
2023-03-09T14:07:44.114Z,99106.34
2023-03-09T14:10:28.090Z,99102.19
2023-03-09T14:13:05.888Z,99092.22
2023-03-09T14:15:34.168Z,99083.59
2023-03-09T14:18:01.543Z,99089.34
2023-03-09T14:20:48.240Z,99092.66
2023-03-09T14:23:30.442Z,99080.41
2023-03-09T14:25:58.627Z,99089.44
2023-03-09T14:28:37.959Z,99074.50
2023-03-09T14:31:21.214Z,99098.00
2023-03-09T14:34:07.120Z,99077.59
2023-03-09T14:36:39.347Z,99068.63
2023-03-09T14:39:22.358Z,99072.50
2023-03-09T14:42:11.764Z,99073.09
2023-03-09T14:44:42.165Z,99062.50
2023-03-09T14:47:17.691Z,99065.81
2023-03-09T14:49:50.329Z,99051.34
2023-03-09T14:52:20.046Z,99054.84
2023-03-09T14:54:46.793Z,99057.38
2023-03-09T14:57:15.107Z,99046.78
2023-03-09T14:59:41.774Z,99050.91
2023-03-09T15:02:10.560Z,99061.22
2023-03-09T15:04:38.154Z,99052.00
2023-03-09T15:07:05.578Z,99049.34
2023-03-09T15:09:33.476Z,99062.25
2023-03-09T15:12:05.418Z,99060.50
2023-03-09T15:14:36.676Z,99044.97
2023-03-09T15:17:05.017Z,99050.44
2023-03-09T15:19:31.883Z,99058.81
2023-03-09T15:22:02.013Z,99051.75
2023-03-09T15:24:30.950Z,99051.72
2023-03-09T15:26:59.099Z,99036.66
2023-03-09T15:29:25.609Z,99038.94
2023-03-09T15:31:52.117Z,99042.72
2023-03-09T15:34:18.581Z,99049.34
2023-03-09T15:36:45.039Z,99045.41
2023-03-09T15:39:11.650Z,99005.56
2023-03-09T15:41:38.090Z,99006.63
2023-03-09T15:44:04.711Z,99011.22
2023-03-09T15:46:31.157Z,99002.38
2023-03-09T15:48:57.615Z,98999.38
2023-03-09T15:51:24.365Z,98997.81
2023-03-09T15:53:52.075Z,98998.53
2023-03-09T15:56:20.284Z,98997.56
2023-03-09T15:58:47.242Z,99003.94
2023-03-09T16:01:19.604Z,98993.38
2023-03-09T16:03:50.565Z,99022.88
2023-03-09T16:06:21.656Z,99000.09
2023-03-09T16:08:49.409Z,98986.03
2023-03-09T16:11:17.522Z,98991.16
2023-03-09T16:13:44.137Z,99010.28
2023-03-09T16:16:11.862Z,98994.72
2023-03-09T16:18:39.227Z,99001.69
2023-03-09T16:21:05.927Z,99001.09
2023-03-09T16:23:32.384Z,99004.50
2023-03-09T16:25:58.852Z,99012.34
2023-03-09T16:28:28.044Z,99000.09
2023-03-09T16:30:55.101Z,98998.78
2023-03-09T16:33:22.190Z,98992.75
2023-03-09T16:36:00.409Z,98995.09
2023-03-09T16:38:27.146Z,98982.88
2023-03-09T16:40:53.678Z,98982.28
2023-03-09T16:43:20.297Z,98974.88
2023-03-09T16:45:57.358Z,98976.63
2023-03-09T16:48:25.595Z,98981.34
2023-03-09T16:51:02.415Z,98973.66
2023-03-09T16:53:30.978Z,98980.34
2023-03-09T16:56:07.821Z,98974.81
2023-03-09T16:58:35.455Z,98977.31
2023-03-09T17:01:02.122Z,98967.09
2023-03-09T17:03:29.025Z,98967.66
2023-03-09T17:05:56.937Z,98963.25
2023-03-09T17:08:23.330Z,98964.97
2023-03-09T17:10:50.188Z,98959.44
2023-03-09T17:13:16.873Z,98959.44
2023-03-09T17:15:43.344Z,98962.28
2023-03-09T17:18:09.978Z,98953.41
2023-03-09T17:20:36.406Z,98953.41
2023-03-09T17:23:03.090Z,98954.00
2023-03-09T17:25:29.544Z,98955.66
2023-03-09T17:27:56.939Z,98958.72
2023-03-09T17:30:30.532Z,98945.72
2023-03-09T17:33:06.162Z,98950.69
2023-03-09T17:35:32.715Z,98937.69
2023-03-09T17:38:00.273Z,98946.31
2023-03-09T17:40:26.786Z,98937.69
2023-03-09T17:42:53.236Z,98931.91
2023-03-09T17:45:20.068Z,98937.44
2023-03-09T17:47:46.595Z,98934.94
2023-03-09T17:50:12.996Z,98939.63
2023-03-09T17:52:39.465Z,98934.09
2023-03-09T17:55:06.321Z,98930.25
2023-03-09T17:57:32.815Z,98922.53
2023-03-09T17:59:59.211Z,98920.84
2023-03-09T18:02:25.638Z,98926.94
2023-03-09T18:04:52.153Z,98916.19
2023-03-09T18:07:19.412Z,98925.28
2023-03-09T18:09:51.141Z,98930.81
2023-03-09T18:12:18.115Z,98926.41
2023-03-09T18:14:44.725Z,98924.47
2023-03-09T18:17:11.260Z,98925.31
2023-03-09T18:19:37.656Z,98914.81
2023-03-09T18:22:05.374Z,98915.38
2023-03-09T18:24:31.839Z,98912.06
2023-03-09T18:26:58.288Z,98909.06
2023-03-09T18:29:24.704Z,98904.06
2023-03-09T18:31:51.868Z,98908.75
2023-03-09T18:34:18.831Z,98903.75
2023-03-09T18:36:45.366Z,98901.28
2023-03-09T18:39:11.801Z,98908.22
2023-03-09T18:41:38.216Z,98893.28
2023-03-09T18:44:06.210Z,98885.28
2023-03-09T18:46:33.631Z,98879.75
2023-03-09T18:49:01.487Z,98871.75
2023-03-09T18:51:28.579Z,98870.06
2023-03-09T18:53:55.057Z,98859.59
2023-03-09T18:56:21.767Z,98862.91
2023-03-09T18:58:53.923Z,98854.06
2023-03-09T19:01:21.637Z,98851.31
2023-03-09T19:03:48.886Z,98850.22
2023-03-09T19:06:21.553Z,98840.00
2023-03-09T19:08:48.381Z,98839.16
2023-03-09T19:11:17.446Z,98833.63
2023-03-09T19:13:45.836Z,98833.63
2023-03-09T19:16:14.964Z,98838.06
2023-03-09T19:18:41.958Z,98832.53
2023-03-09T19:21:13.509Z,98827.00
2023-03-09T19:23:39.957Z,98826.47
2023-03-09T19:26:06.513Z,98812.09
2023-03-09T19:28:33.080Z,98804.91
2023-03-09T19:31:07.461Z,98806.88
2023-03-09T19:33:34.389Z,98801.09
2023-03-09T19:36:01.206Z,98795.56
2023-03-09T19:38:28.083Z,98790.56
2023-03-09T19:41:02.927Z,98782.84
2023-03-09T19:43:29.982Z,98785.66
2023-03-09T19:46:01.495Z,98769.09
2023-03-09T19:48:29.008Z,98766.59
2023-03-09T19:51:05.239Z,98766.31
2023-03-09T19:53:32.085Z,98751.97
2023-03-09T19:56:03.740Z,98746.75
2023-03-09T19:58:30.176Z,98746.50
2023-03-09T20:00:56.755Z,98737.66
2023-03-09T20:03:23.168Z,98732.69
2023-03-09T20:05:49.530Z,98711.44
2023-03-09T20:08:15.947Z,98709.78
2023-03-09T20:10:42.686Z,98710.91
2023-03-09T20:13:09.533Z,98704.56
2023-03-09T20:15:35.962Z,98715.06
2023-03-09T20:18:02.398Z,98711.72
2023-03-09T20:20:28.837Z,98697.94
2023-03-09T20:22:55.252Z,98697.38
2023-03-09T20:25:24.457Z,98692.97
2023-03-09T20:27:50.917Z,98683.03
2023-03-09T20:30:17.724Z,98686.63
2023-03-09T20:32:44.222Z,98673.09
2023-03-09T20:35:10.772Z,98665.97
2023-03-09T20:37:37.895Z,98664.31
2023-03-09T20:40:05.318Z,98664.28
2023-03-09T20:42:32.057Z,98674.78
2023-03-09T20:44:58.665Z,98672.00
2023-03-09T20:47:25.176Z,98670.34
2023-03-09T20:49:52.567Z,98671.19
2023-03-09T20:52:19.026Z,98652.13
2023-03-09T20:54:45.528Z,98659.31
2023-03-09T20:57:11.955Z,98664.28
2023-03-09T20:59:38.353Z,98661.78
2023-03-09T21:02:04.898Z,98656.00
2023-03-09T21:04:31.437Z,98653.22
2023-03-09T21:06:57.952Z,98652.38
2023-03-09T21:09:24.388Z,98645.47
2023-03-09T21:11:50.786Z,98643.81
2023-03-09T21:14:17.520Z,98635.28
2023-03-09T21:16:43.954Z,98626.16
2023-03-09T21:19:10.427Z,98610.97
2023-03-09T21:21:36.800Z,98601.28
2023-03-09T21:24:03.340Z,98597.47
2023-03-09T21:26:29.724Z,98604.63
2023-03-09T21:28:59.150Z,98606.28
2023-03-09T21:31:30.153Z,98615.66
2023-03-09T21:33:57.537Z,98601.31
2023-03-09T21:36:24.698Z,98590.81
2023-03-09T21:38:51.850Z,98593.84
2023-03-09T21:41:18.487Z,98583.06
2023-03-09T21:43:46.413Z,98583.03
2023-03-09T21:46:13.595Z,98586.31
2023-03-09T21:48:44.612Z,98580.81
2023-03-09T21:51:13.137Z,98567.56
2023-03-09T21:53:39.703Z,98556.53
2023-03-09T21:56:06.721Z,98553.19
2023-03-09T21:58:34.047Z,98527.50
2023-03-09T22:01:00.818Z,98530.53
2023-03-09T22:03:27.355Z,98525.00
2023-03-09T22:05:53.811Z,98520.63
2023-03-09T22:08:20.176Z,98509.56
2023-03-09T22:10:46.670Z,98501.00
2023-03-09T22:13:13.060Z,98496.56
2023-03-09T22:15:39.756Z,98491.34
2023-03-09T22:18:06.219Z,98481.13
2023-03-09T22:20:32.711Z,98479.75
2023-03-09T22:22:59.364Z,98478.94
2023-03-09T22:25:25.775Z,98474.22
2023-03-09T22:27:52.256Z,98479.22
2023-03-09T22:30:19.242Z,98459.91
2023-03-09T22:32:46.418Z,98460.50
2023-03-09T22:35:13.594Z,98458.84
2023-03-09T22:37:40.277Z,98439.00
2023-03-09T22:40:09.224Z,98442.28
2023-03-09T22:42:37.588Z,98444.56
2023-03-09T22:45:04.772Z,98437.09
2023-03-09T22:47:31.313Z,98432.44
2023-03-09T22:49:58.056Z,98438.84
2023-03-09T22:52:24.660Z,98436.38
2023-03-09T22:54:51.956Z,98424.00
2023-03-09T22:57:18.660Z,98414.63
2023-03-09T22:59:45.037Z,98416.59
2023-03-09T23:02:11.518Z,98415.22
2023-03-09T23:04:38.010Z,98416.34
2023-03-09T23:07:05.243Z,98408.09
2023-03-09T23:09:31.636Z,98404.81
2023-03-09T23:11:58.171Z,98408.94
2023-03-09T23:14:30.352Z,98392.97
2023-03-09T23:16:57.250Z,98392.69
2023-03-09T23:19:23.746Z,98392.38
2023-03-09T23:21:50.366Z,98392.94
2023-03-09T23:24:16.830Z,98380.00
2023-03-09T23:26:43.206Z,98394.03
2023-03-09T23:29:09.699Z,98386.88
2023-03-09T23:31:36.163Z,98387.72
2023-03-09T23:34:02.638Z,98381.09
2023-03-09T23:36:29.082Z,98379.44
2023-03-09T23:38:55.522Z,98373.66
2023-03-09T23:41:22.037Z,98374.75
2023-03-09T23:43:48.428Z,98365.91
2023-03-09T23:46:17.406Z,98369.22
2023-03-09T23:48:44.385Z,98360.41
2023-03-09T23:51:14.409Z,98355.72
2023-03-09T23:53:41.480Z,98360.41
2023-03-09T23:56:13.567Z,98351.03
2023-03-09T23:58:58.749Z,98346.06
